createdAt,value
2022-11-06T00:02:36.714Z,9.05
2022-11-06T00:05:55.332Z,9.52
2022-11-06T00:09:02.135Z,13.48
2022-11-06T00:12:11.143Z,10.35
2022-11-06T00:15:20.219Z,10.07
2022-11-06T00:18:28.115Z,15.23
2022-11-06T00:21:38.694Z,10.00
2022-11-06T00:24:45.360Z,13.48
2022-11-06T00:27:58.342Z,8.75
2022-11-06T00:31:06.815Z,15.98
2022-11-06T00:34:13.827Z,10.65
2022-11-06T00:37:20.487Z,13.88
2022-11-06T00:40:26.417Z,10.23
2022-11-06T00:43:38.887Z,10.23
2022-11-06T00:46:44.497Z,17.30
2022-11-06T00:49:49.461Z,11.48
2022-11-06T00:52:54.742Z,11.32
2022-11-06T00:56:06.422Z,13.93
2022-11-06T00:59:15.433Z,6.47
2022-11-06T01:02:21.248Z,13.65
2022-11-06T01:05:31.625Z,12.20
2022-11-06T01:08:38.304Z,13.63
2022-11-06T01:12:11.935Z,8.80
2022-11-06T01:15:13.747Z,13.60
2022-11-06T01:18:19.400Z,12.52
2022-11-06T01:21:25.111Z,11.00
2022-11-06T01:24:31.177Z,13.30
2022-11-06T01:27:36.157Z,10.10
2022-11-06T01:30:44.042Z,13.60
2022-11-06T01:33:49.206Z,12.63
2022-11-06T01:36:54.532Z,11.90
2022-11-06T01:40:00.347Z,10.15
2022-11-06T01:43:06.142Z,14.40
2022-11-06T01:46:13.856Z,12.73
2022-11-06T01:49:19.857Z,10.00
2022-11-06T01:52:25.255Z,10.30
2022-11-06T01:55:32.234Z,10.30
2022-11-06T01:58:41.869Z,13.02
2022-11-06T02:01:51.077Z,11.65
2022-11-06T02:04:56.127Z,8.32
2022-11-06T02:08:02.175Z,11.88
2022-11-06T02:11:07.234Z,10.45
2022-11-06T02:14:16.061Z,9.98
2022-11-06T02:17:28.341Z,10.80
2022-11-06T02:20:36.550Z,13.85
2022-11-06T02:23:48.652Z,13.43
2022-11-06T02:27:10.508Z,12.13
2022-11-06T02:30:17.458Z,11.40
2022-11-06T02:33:26.814Z,13.57
2022-11-06T02:36:35.202Z,12.20
2022-11-06T02:39:44.153Z,10.73
2022-11-06T02:42:58.891Z,14.23
2022-11-06T02:46:09.698Z,9.90
2022-11-06T02:49:16.318Z,12.27
2022-11-06T02:52:26.650Z,13.00
2022-11-06T02:55:33.905Z,9.63
2022-11-06T02:58:48.786Z,14.65
2022-11-06T03:01:55.637Z,12.25
2022-11-06T03:05:05.347Z,10.98
2022-11-06T03:08:12.608Z,11.02
2022-11-06T03:11:22.815Z,14.13
2022-11-06T03:14:34.376Z,8.93
2022-11-06T03:17:42.539Z,11.53
2022-11-06T03:20:58.842Z,12.60
2022-11-06T03:24:08.818Z,8.75
2022-11-06T03:27:16.312Z,10.55
2022-11-06T03:30:25.701Z,13.07
2022-11-06T03:33:34.492Z,12.85
2022-11-06T03:36:43.126Z,11.68
2022-11-06T03:39:54.112Z,11.15
2022-11-06T03:43:02.025Z,13.73
2022-11-06T03:46:12.731Z,7.72
2022-11-06T03:49:20.066Z,14.68
2022-11-06T03:52:27.446Z,10.52
2022-11-06T03:55:36.073Z,9.55
2022-11-06T03:58:43.358Z,9.18
2022-11-06T04:01:52.336Z,9.18
2022-11-06T04:05:00.100Z,11.80
2022-11-06T04:08:17.871Z,10.55
2022-11-06T04:11:45.428Z,11.13
2022-11-06T04:14:53.780Z,11.43
2022-11-06T04:18:01.317Z,11.40
2022-11-06T04:21:26.116Z,10.85
2022-11-06T04:24:48.716Z,11.10
2022-11-06T04:28:08.765Z,13.15
2022-11-06T04:31:15.628Z,8.98
2022-11-06T04:34:25.369Z,12.77
2022-11-06T04:37:34.643Z,9.63
2022-11-06T04:40:49.043Z,10.20
2022-11-06T04:43:57.392Z,12.18
2022-11-06T04:47:05.083Z,11.50
2022-11-06T04:50:17.513Z,11.32
2022-11-06T04:53:25.812Z,11.52
2022-11-06T04:56:35.280Z,13.68
2022-11-06T04:59:41.306Z,11.10
2022-11-06T05:02:46.204Z,10.18
2022-11-06T05:05:55.376Z,9.57
2022-11-06T05:09:01.471Z,10.18
2022-11-06T05:12:07.636Z,10.88
2022-11-06T05:15:12.784Z,9.00
2022-11-06T05:18:18.404Z,9.57
2022-11-06T05:21:38.664Z,12.00
2022-11-06T05:24:43.986Z,10.95
2022-11-06T05:27:50.803Z,8.88
2022-11-06T05:30:56.085Z,10.35
2022-11-06T05:34:04.164Z,8.85
2022-11-06T05:37:13.865Z,9.38
2022-11-06T05:40:18.885Z,8.10
2022-11-06T05:43:24.275Z,8.00
2022-11-06T05:46:47.691Z,10.40
2022-11-06T05:49:54.382Z,13.65
2022-11-06T05:53:02.739Z,9.23
2022-11-06T05:56:11.310Z,12.20
2022-11-06T05:59:17.765Z,9.50
2022-11-06T06:02:23.227Z,7.20
2022-11-06T06:05:30.518Z,9.77
2022-11-06T06:08:38.436Z,10.95
2022-11-06T06:11:43.335Z,10.07
2022-11-06T06:14:50.579Z,11.57
2022-11-06T06:17:56.545Z,9.55
2022-11-06T06:21:02.263Z,6.85
2022-11-06T06:24:17.294Z,7.18
2022-11-06T06:27:22.703Z,11.02
2022-11-06T06:30:28.094Z,8.10
2022-11-06T06:33:33.489Z,7.75
2022-11-06T06:36:39.636Z,9.85
2022-11-06T06:39:51.640Z,7.30
2022-11-06T06:43:01.057Z,6.97
2022-11-06T06:46:07.585Z,7.10
2022-11-06T06:49:13.325Z,8.93
2022-11-06T06:52:18.920Z,9.70
2022-11-06T06:55:26.877Z,8.00
2022-11-06T06:58:34.928Z,7.45
2022-11-06T07:01:40.162Z,11.27
2022-11-06T07:04:47.148Z,5.40
2022-11-06T07:07:52.049Z,7.43
2022-11-06T07:11:03.905Z,7.35
2022-11-06T07:14:12.028Z,8.48
2022-11-06T07:17:19.418Z,9.88
2022-11-06T07:20:27.458Z,13.27
2022-11-06T07:23:34.996Z,8.77
2022-11-06T07:26:42.591Z,8.10
2022-11-06T07:29:47.900Z,6.13
2022-11-06T07:32:52.820Z,5.22
2022-11-06T07:35:59.201Z,8.23
2022-11-06T07:39:04.651Z,8.40
2022-11-06T07:42:13.965Z,5.68
2022-11-06T07:45:19.102Z,5.45
2022-11-06T07:48:24.356Z,7.38
2022-11-06T07:51:29.301Z,7.00
2022-11-06T07:54:35.085Z,11.30
2022-11-06T07:57:42.656Z,10.32
2022-11-06T08:00:51.482Z,6.32
2022-11-06T08:03:56.404Z,6.15
2022-11-06T08:07:01.693Z,6.72
2022-11-06T08:10:07.225Z,7.20
2022-11-06T08:13:17.528Z,11.73
2022-11-06T08:16:22.453Z,6.43
2022-11-06T08:19:27.731Z,5.90
2022-11-06T08:22:35.307Z,10.73
2022-11-06T08:25:41.148Z,6.28
2022-11-06T08:28:48.915Z,7.88
2022-11-06T08:31:54.269Z,7.20
2022-11-06T08:35:01.683Z,8.45
2022-11-06T08:38:07.075Z,8.32
2022-11-06T08:41:15.088Z,6.63
2022-11-06T08:44:23.424Z,7.20
2022-11-06T08:47:28.383Z,7.95
2022-11-06T08:50:36.743Z,10.20
2022-11-06T08:53:42.334Z,7.35
2022-11-06T08:56:51.373Z,8.13
2022-11-06T09:00:01.026Z,7.20
2022-11-06T09:03:08.583Z,9.32
2022-11-06T09:06:13.793Z,7.72
2022-11-06T09:09:22.867Z,8.73
2022-11-06T09:12:27.959Z,5.53
2022-11-06T09:15:36.613Z,10.05
2022-11-06T09:18:41.620Z,7.80
2022-11-06T09:21:51.949Z,6.75
2022-11-06T09:25:04.312Z,7.90
2022-11-06T09:28:11.563Z,5.03
2022-11-06T09:31:21.036Z,7.50
2022-11-06T09:34:26.379Z,7.45
2022-11-06T09:37:32.315Z,5.75
2022-11-06T09:40:39.180Z,4.93
2022-11-06T09:44:09.482Z,7.30
2022-11-06T09:47:20.260Z,7.45
2022-11-06T09:50:30.692Z,7.32
2022-11-06T09:53:38.120Z,5.75
2022-11-06T09:56:44.306Z,6.22
2022-11-06T09:59:53.325Z,5.63
2022-11-06T10:03:03.950Z,8.88
2022-11-06T10:06:13.297Z,8.82
2022-11-06T10:09:20.093Z,6.18
2022-11-06T10:12:32.086Z,8.43
2022-11-06T10:15:39.538Z,11.23
2022-11-06T10:18:55.322Z,5.43
2022-11-06T10:22:03.085Z,5.45
2022-11-06T10:25:15.010Z,4.57
2022-11-06T10:28:29.551Z,5.93
2022-11-06T10:31:37.231Z,5.95
2022-11-06T10:34:48.412Z,5.57
2022-11-06T10:37:55.248Z,4.53
2022-11-06T10:41:00.426Z,4.70
2022-11-06T10:44:11.524Z,5.18
2022-11-06T10:47:20.152Z,4.60
2022-11-06T10:50:31.608Z,3.90
2022-11-06T10:53:43.630Z,4.10
2022-11-06T10:56:57.323Z,4.60
2022-11-06T11:00:04.845Z,5.90
2022-11-06T11:03:24.751Z,4.10
2022-11-06T11:06:32.732Z,7.60
2022-11-06T11:09:38.577Z,5.60
2022-11-06T11:12:51.682Z,5.57
2022-11-06T11:15:57.132Z,6.88
2022-11-06T11:19:22.822Z,4.93
2022-11-06T11:22:33.280Z,3.88
2022-11-06T11:25:40.583Z,4.03
2022-11-06T11:28:46.871Z,6.32
2022-11-06T11:31:54.014Z,3.00
2022-11-06T11:35:02.376Z,5.55
2022-11-06T11:38:19.222Z,6.88
2022-11-06T11:41:28.814Z,5.13
2022-11-06T11:44:34.853Z,6.43
2022-11-06T11:47:46.116Z,4.88
2022-11-06T11:50:52.636Z,6.38
2022-11-06T11:54:05.640Z,4.63
2022-11-06T11:57:11.861Z,6.30
2022-11-06T12:00:21.148Z,8.52
2022-11-06T12:03:28.348Z,4.20
2022-11-06T12:06:34.511Z,4.00
2022-11-06T12:09:46.898Z,3.42
2022-11-06T12:12:53.394Z,5.03
2022-11-06T12:16:04.631Z,4.72
2022-11-06T12:19:11.414Z,9.35
2022-11-06T12:22:19.826Z,5.07
2022-11-06T12:25:29.476Z,5.95
2022-11-06T12:28:42.336Z,7.68
2022-11-06T12:31:49.558Z,6.63
2022-11-06T12:34:57.692Z,4.13
2022-11-06T12:38:15.041Z,4.45
2022-11-06T12:41:27.607Z,5.53
2022-11-06T12:44:38.111Z,3.83
2022-11-06T12:47:47.710Z,6.30
2022-11-06T12:50:56.090Z,5.65
2022-11-06T12:54:08.119Z,5.55
2022-11-06T12:57:27.404Z,6.40
2022-11-06T13:00:37.741Z,5.95
2022-11-06T13:03:58.019Z,3.17
2022-11-06T13:07:13.314Z,6.05
2022-11-06T13:10:28.921Z,5.90
2022-11-06T13:13:43.673Z,5.30
2022-11-06T13:16:55.022Z,8.25
2022-11-06T13:20:04.619Z,4.35
2022-11-06T13:23:17.018Z,4.53
2022-11-06T13:26:29.241Z,5.32
2022-11-06T13:29:37.844Z,6.60
2022-11-06T13:32:44.092Z,4.50
2022-11-06T13:35:51.341Z,5.75
2022-11-06T13:38:58.619Z,4.20
2022-11-06T13:42:05.958Z,7.95
2022-11-06T13:45:26.627Z,3.85
2022-11-06T13:48:38.655Z,6.22
2022-11-06T13:51:50.691Z,4.45
2022-11-06T13:55:11.884Z,6.30
2022-11-06T13:58:27.595Z,2.88
2022-11-06T14:01:48.664Z,4.63
2022-11-06T14:05:10.181Z,3.75
2022-11-06T14:08:20.553Z,4.47
2022-11-06T14:11:29.732Z,5.10
2022-11-06T14:14:43.308Z,4.18
2022-11-06T14:18:28.770Z,6.28
2022-11-06T14:21:52.021Z,8.13
2022-11-06T14:25:03.303Z,6.85
2022-11-06T14:28:15.629Z,4.35
2022-11-06T14:31:44.622Z,7.40
2022-11-06T14:34:53.433Z,4.93
2022-11-06T14:38:15.595Z,5.15
2022-11-06T14:41:51.945Z,5.35
2022-11-06T14:45:01.265Z,6.15
2022-11-06T14:48:16.867Z,8.63
2022-11-06T14:51:32.817Z,6.90
2022-11-06T14:54:40.509Z,5.90
2022-11-06T14:58:07.764Z,6.50
2022-11-06T15:01:29.464Z,5.53
2022-11-06T15:04:38.253Z,5.63
2022-11-06T15:08:04.872Z,5.53
2022-11-06T15:11:47.507Z,7.22
2022-11-06T15:14:57.240Z,4.27
2022-11-06T15:18:02.870Z,5.78
2022-11-06T15:21:12.754Z,4.78
2022-11-06T15:24:24.845Z,7.80
2022-11-06T15:27:40.400Z,8.35
2022-11-06T15:30:50.470Z,6.68
2022-11-06T15:33:59.513Z,6.22
2022-11-06T15:37:12.466Z,6.70
2022-11-06T15:40:29.387Z,6.03
2022-11-06T15:43:43.885Z,7.38
2022-11-06T15:47:04.865Z,6.68
2022-11-06T15:50:22.137Z,7.70
2022-11-06T15:56:40.310Z,8.07
2022-11-06T15:59:46.429Z,6.05
2022-11-06T16:02:54.276Z,5.20
2022-11-06T16:06:00.150Z,6.40
2022-11-06T16:09:06.610Z,6.88
2022-11-06T16:12:16.703Z,8.93
2022-11-06T16:15:37.177Z,7.90
2022-11-06T16:18:44.264Z,7.80
2022-11-06T16:21:53.869Z,7.30
2022-11-06T16:25:01.068Z,7.70
2022-11-06T16:28:16.446Z,6.68
2022-11-06T16:31:25.528Z,9.27
2022-11-06T16:34:39.979Z,6.93
2022-11-06T16:37:47.138Z,6.65
2022-11-06T16:40:54.054Z,4.43
2022-11-06T16:44:13.724Z,5.28
2022-11-06T16:50:46.918Z,6.38
2022-11-06T16:54:02.038Z,4.10
2022-11-06T16:57:12.222Z,3.65
2022-11-06T17:00:26.246Z,6.28
2022-11-06T17:03:40.216Z,5.72
2022-11-06T17:06:48.073Z,6.15
2022-11-06T17:09:57.071Z,5.40
2022-11-06T17:13:03.747Z,5.28
2022-11-06T17:16:10.628Z,7.43
2022-11-06T17:19:18.240Z,9.77
2022-11-06T17:22:29.824Z,6.55
2022-11-06T17:25:42.001Z,5.45
2022-11-06T17:28:51.854Z,4.10
2022-11-06T17:31:59.353Z,6.45
2022-11-06T17:35:06.759Z,6.70
2022-11-06T17:38:15.676Z,3.85
2022-11-06T17:44:47.547Z,4.65
2022-11-06T17:47:54.777Z,5.68
2022-11-06T17:51:13.498Z,4.30
2022-11-06T17:54:18.896Z,5.13
2022-11-06T17:57:26.769Z,5.82
2022-11-06T18:00:43.027Z,5.28
2022-11-06T18:03:49.955Z,5.32
2022-11-06T18:06:56.663Z,6.65
2022-11-06T18:10:05.253Z,4.72
2022-11-06T18:13:22.804Z,5.43
2022-11-06T18:16:42.241Z,6.07
2022-11-06T18:20:00.160Z,6.68
2022-11-06T18:23:05.725Z,5.22
2022-11-06T18:26:13.356Z,6.50
2022-11-06T18:29:22.333Z,5.60
2022-11-06T18:32:34.420Z,3.88
2022-11-06T18:35:40.794Z,4.55
2022-11-06T18:38:54.709Z,4.30
2022-11-06T18:42:01.243Z,5.50
2022-11-06T18:45:06.689Z,5.45
2022-11-06T18:48:20.774Z,6.72
2022-11-06T18:51:35.038Z,7.78
2022-11-06T18:55:00.604Z,4.30
2022-11-06T18:58:20.144Z,6.18
2022-11-06T19:01:26.380Z,7.32
2022-11-06T19:04:34.352Z,4.97
2022-11-06T19:07:40.421Z,6.25
2022-11-06T19:10:50.974Z,7.30
2022-11-06T19:13:57.526Z,4.85
2022-11-06T19:17:10.192Z,7.05
2022-11-06T19:20:19.754Z,5.43
2022-11-06T19:23:27.327Z,7.95
2022-11-06T19:26:35.773Z,4.93
2022-11-06T19:29:43.564Z,8.55
2022-11-06T19:32:49.060Z,7.60
2022-11-06T19:35:58.209Z,7.75
2022-11-06T19:39:05.957Z,8.55
2022-11-06T19:42:19.329Z,5.22
2022-11-06T19:45:30.079Z,6.38
2022-11-06T19:48:41.565Z,6.25
2022-11-06T19:51:57.585Z,7.18
2022-11-06T19:55:27.692Z,8.63
2022-11-06T19:58:37.033Z,8.23
2022-11-06T20:01:42.448Z,9.23
2022-11-06T20:04:51.234Z,7.03
2022-11-06T20:08:00.190Z,7.75
2022-11-06T20:11:07.681Z,7.18
2022-11-06T20:14:15.012Z,5.72
2022-11-06T20:17:21.157Z,7.00
2022-11-06T20:20:31.846Z,8.40
2022-11-06T20:26:51.384Z,6.88
2022-11-06T20:30:00.676Z,7.03
2022-11-06T20:33:09.048Z,7.22
2022-11-06T20:36:15.214Z,7.70
2022-11-06T20:39:20.137Z,7.05
2022-11-06T20:42:28.100Z,7.80
2022-11-06T20:45:37.222Z,6.13
2022-11-06T20:48:43.236Z,7.20
2022-11-06T20:52:12.679Z,7.72
2022-11-06T20:55:21.106Z,10.32
2022-11-06T20:58:31.360Z,7.10
2022-11-06T21:01:38.481Z,8.38
2022-11-06T21:04:46.428Z,6.93
2022-11-06T21:07:52.203Z,6.90
2022-11-06T21:11:04.853Z,6.32
2022-11-06T21:14:14.324Z,6.03
2022-11-06T21:17:21.297Z,9.40
2022-11-06T21:20:27.189Z,7.25
2022-11-06T21:23:33.240Z,6.65
2022-11-06T21:26:40.289Z,6.85
2022-11-06T21:29:51.192Z,7.95
2022-11-06T21:32:56.696Z,5.88
2022-11-06T21:36:12.313Z,8.48
2022-11-06T21:39:20.726Z,6.95
2022-11-06T21:42:27.950Z,6.85
2022-11-06T21:45:36.283Z,6.40
2022-11-06T21:48:46.760Z,6.80
2022-11-06T21:52:23.965Z,5.75
2022-11-06T21:55:49.992Z,8.77
2022-11-06T21:58:58.863Z,7.47
2022-11-06T22:02:06.588Z,8.93
2022-11-06T22:05:12.490Z,8.48
2022-11-06T22:08:19.216Z,8.05
2022-11-06T22:11:26.462Z,9.25
2022-11-06T22:14:31.363Z,8.23
2022-11-06T22:17:39.881Z,10.48
2022-11-06T22:20:44.835Z,8.15
2022-11-06T22:23:50.880Z,10.30
2022-11-06T22:26:56.617Z,8.10
2022-11-06T22:30:02.226Z,8.90
2022-11-06T22:33:10.598Z,8.82
2022-11-06T22:36:16.874Z,7.63
2022-11-06T22:39:22.992Z,10.60
2022-11-06T22:42:28.774Z,7.07
2022-11-06T22:45:34.155Z,11.68
2022-11-06T22:48:42.413Z,11.85
2022-11-06T22:51:48.116Z,9.43
2022-11-06T22:54:53.568Z,8.55
2022-11-06T22:57:59.701Z,8.73
2022-11-06T23:01:05.376Z,10.48
2022-11-06T23:04:15.191Z,8.20
2022-11-06T23:07:20.793Z,10.48
2022-11-06T23:10:33.205Z,13.30
2022-11-06T23:13:39.709Z,9.30
2022-11-06T23:17:01.043Z,8.43
2022-11-06T23:20:10.063Z,7.75
2022-11-06T23:23:16.026Z,11.43
2022-11-06T23:26:22.366Z,10.15
2022-11-06T23:29:27.482Z,9.55
2022-11-06T23:32:33.513Z,14.05
2022-11-06T23:35:41.814Z,10.85
2022-11-06T23:38:52.241Z,9.00
2022-11-06T23:41:57.181Z,12.18
2022-11-06T23:45:14.884Z,10.38
2022-11-06T23:48:20.187Z,9.95
2022-11-06T23:51:29.014Z,13.80
2022-11-06T23:54:34.087Z,10.40
2022-11-06T23:57:39.474Z,9.13
